Time;durP1;ratioP1;P1;durP2;ratioP2;P2;SDS_P1;SDS_P2;PMS_P1;PMS_P2;Temp;Humidity;BMP_temperature;BMP_pressure;BME280_temperature;BME280_humidity;BME280_pressure;Samples;Min_cycle;Max_cycle;Signal;HPM_P1;HPM_P2
2021/03/12 00:00:59;;;;;;;10.83;2.57;;;;;;;;;;5024764;28;20186;-71
2021/03/12 00:03:29;;;;;;;11.57;2.43;;;;;;;;;;5032290;28;20641;-71
2021/03/12 00:05:57;;;;;;;14.30;2.60;;;;;;;;;;5032001;28;20189;-70
2021/03/12 00:08:25;;;;;;;17.87;3.07;;;;;;;;;;5035585;28;20491;-68
2021/03/12 00:10:51;;;;;;;11.13;3.03;;;;;;;;;;5030518;28;20638;-71
2021/03/12 00:13:19;;;;;;;13.40;3.30;;;;;;;;;;5025803;28;20181;-71
2021/03/12 00:15:45;;;;;;;13.33;2.87;;;;;;;;;;5037600;28;20801;-70
2021/03/12 00:18:10;;;;;;;13.63;2.93;;;;;;;;;;5029165;28;20565;-70
2021/03/12 00:20:40;;;;;;;12.20;3.13;;;;;;;;;;5040681;28;20199;-68
2021/03/12 00:23:07;;;;;;;12.57;3.03;;;;;;;;;;5030302;28;20280;-71
2021/03/12 00:25:38;;;;;;;14.87;3.33;;;;;;;;;;5034653;28;20184;-71
2021/03/12 00:28:04;;;;;;;18.63;3.37;;;;;;;;;;5029884;28;20271;-71
2021/03/12 00:30:30;;;;;;;9.90;3.40;;;;;;;;;;5037587;28;20182;-71
2021/03/12 00:32:55;;;;;;;12.63;2.90;;;;;;;;;;5030186;28;20245;-71
2021/03/12 00:35:21;;;;;;;13.27;2.80;;;;;;;;;;5038674;28;20177;-71
2021/03/12 00:37:46;;;;;;;11.83;3.67;;;;;;;;;;5029059;28;20236;-71
2021/03/12 00:40:15;;;;;;;8.37;2.70;;;;;;;;;;5032837;28;20296;-71
2021/03/12 00:42:41;;;;;;;13.03;2.70;;;;;;;;;;5028325;28;20549;-71
2021/03/12 00:45:10;;;;;;;16.17;3.00;;;;;;;;;;5035442;28;20181;-71
2021/03/12 00:47:36;;;;;;;13.83;2.70;;;;;;;;;;5038138;28;20405;-71
2021/03/12 00:50:02;;;;;;;12.00;2.63;;;;;;;;;;5024094;28;20186;-71
2021/03/12 00:52:27;;;;;;;13.57;2.93;;;;;;;;;;5034486;28;20629;-71
2021/03/12 00:54:53;;;;;;;10.83;2.53;;;;;;;;;;5029373;28;20251;-71
2021/03/12 00:57:18;;;;;;;13.53;2.23;;;;;;;;;;5036039;28;20177;-71
2021/03/12 00:59:44;;;;;;;12.23;2.53;;;;;;;;;;5030351;28;20216;-71
2021/03/12 01:02:09;;;;;;;11.23;2.43;;;;;;;;;;5035315;28;20200;-71
2021/03/12 01:04:34;;;;;;;11.00;2.07;;;;;;;;;;5027556;28;20221;-71
2021/03/12 01:07:00;;;;;;;9.90;2.57;;;;;;;;;;5035585;28;20224;-71
2021/03/12 01:09:25;;;;;;;10.97;2.20;;;;;;;;;;5035879;28;20188;-69
2021/03/12 01:11:50;;;;;;;13.83;2.27;;;;;;;;;;5035670;28;20183;-68
2021/03/12 01:14:16;;;;;;;8.17;2.37;;;;;;;;;;5026961;28;20185;-71
2021/03/12 01:16:41;;;;;;;10.87;2.37;;;;;;;;;;5029376;28;20189;-71
2021/03/12 01:19:06;;;;;;;7.63;2.00;;;;;;;;;;5039451;28;20194;-71
2021/03/12 01:21:32;;;;;;;9.20;2.30;;;;;;;;;;5028035;28;20553;-68
2021/03/12 01:23:57;;;;;;;8.90;2.27;;;;;;;;;;5037392;28;20250;-71
2021/03/12 01:26:23;;;;;;;7.20;1.80;;;;;;;;;;5030962;28;20320;-71
2021/03/12 01:28:48;;;;;;;9.50;2.73;;;;;;;;;;5038615;28;20188;-71
2021/03/12 01:31:14;;;;;;;8.23;2.00;;;;;;;;;;5030736;28;20196;-71
2021/03/12 01:33:39;;;;;;;13.20;1.97;;;;;;;;;;5033137;28;20179;-71
2021/03/12 01:36:05;;;;;;;6.90;2.27;;;;;;;;;;5030065;28;20187;-71
2021/03/12 01:38:30;;;;;;;7.83;2.03;;;;;;;;;;5029792;28;20222;-71
2021/03/12 01:40:55;;;;;;;15.30;2.50;;;;;;;;;;5024319;28;20813;-71
2021/03/12 01:43:21;;;;;;;10.43;1.67;;;;;;;;;;5034892;28;20186;-71
2021/03/12 01:45:49;;;;;;;7.33;2.03;;;;;;;;;;5041507;28;20194;-71
2021/03/12 01:48:17;;;;;;;9.03;2.50;;;;;;;;;;5027123;28;20224;-71
2021/03/12 01:50:46;;;;;;;8.87;2.53;;;;;;;;;;5033552;28;20194;-71
2021/03/12 01:53:16;;;;;;;8.60;2.60;;;;;;;;;;5027870;28;20216;-71
2021/03/12 01:55:42;;;;;;;11.63;1.90;;;;;;;;;;5039690;28;20177;-71
2021/03/12 01:58:08;;;;;;;8.60;1.90;;;;;;;;;;5025301;28;20193;-71
2021/03/12 02:00:34;;;;;;;6.83;1.57;;;;;;;;;;5036254;28;20202;-71
2021/03/12 02:03:02;;;;;;;8.47;1.53;;;;;;;;;;5030712;28;20185;-71
2021/03/12 02:05:28;;;;;;;10.77;2.13;;;;;;;;;;5036136;28;20213;-68
2021/03/12 02:07:53;;;;;;;6.97;1.83;;;;;;;;;;5023741;28;20206;-70
2021/03/12 02:10:24;;;;;;;8.57;1.83;;;;;;;;;;5039455;28;20192;-71
2021/03/12 02:13:01;;;;;;;8.97;1.80;;;;;;;;;;5027739;28;20514;-71
2021/03/12 02:15:48;;;;;;;9.87;1.60;;;;;;;;;;5042566;28;20268;-69
2021/03/12 02:18:50;;;;;;;12.37;1.80;;;;;;;;;;5036203;28;20610;-69
2021/03/12 02:21:22;;;;;;;10.30;1.57;;;;;;;;;;5037569;28;20272;-71
2021/03/12 02:23:53;;;;;;;8.67;1.60;;;;;;;;;;5031302;28;20190;-69
2021/03/12 02:26:34;;;;;;;7.47;1.70;;;;;;;;;;5037240;28;20280;-69
2021/03/12 02:29:04;;;;;;;9.67;2.23;;;;;;;;;;5024428;28;20290;-68
2021/03/12 02:31:31;;;;;;;10.00;2.03;;;;;;;;;;5042643;28;20182;-69
2021/03/12 02:33:58;;;;;;;7.83;1.60;;;;;;;;;;5037678;28;20595;-69
2021/03/12 02:36:28;;;;;;;6.83;1.80;;;;;;;;;;5040822;28;20290;-69
2021/03/12 02:38:56;;;;;;;4.60;1.57;;;;;;;;;;5033283;28;20231;-69
2021/03/12 02:41:24;;;;;;;10.03;1.90;;;;;;;;;;5039097;28;20197;-69
2021/03/12 02:43:51;;;;;;;15.33;2.03;;;;;;;;;;5027610;28;20193;-69
2021/03/12 02:46:19;;;;;;;9.87;2.10;;;;;;;;;;5040345;28;20201;-69
2021/03/12 02:48:45;;;;;;;9.20;2.30;;;;;;;;;;5033596;28;20250;-69
2021/03/12 02:51:11;;;;;;;6.17;1.50;;;;;;;;;;5032200;28;20302;-69
2021/03/12 02:53:37;;;;;;;10.90;1.60;;;;;;;;;;5041686;28;20189;-69
2021/03/12 02:56:03;;;;;;;12.63;1.83;;;;;;;;;;5033787;28;20190;-69
2021/03/12 02:58:31;;;;;;;5.63;1.43;;;;;;;;;;5038999;28;20209;-69
2021/03/12 03:00:56;;;;;;;13.20;2.73;;;;;;;;;;5033625;28;20186;-69
2021/03/12 03:03:22;;;;;;;9.37;1.90;;;;;;;;;;5040570;28;20489;-69
2021/03/12 03:05:48;;;;;;;6.70;1.67;;;;;;;;;;5029563;28;20194;-69
2021/03/12 03:08:14;;;;;;;9.47;1.87;;;;;;;;;;5034231;28;20200;-69
2021/03/12 03:10:41;;;;;;;6.30;1.60;;;;;;;;;;5031104;28;20219;-69
2021/03/12 03:13:08;;;;;;;8.37;1.83;;;;;;;;;;5045233;28;20191;-69
2021/03/12 03:15:35;;;;;;;13.10;1.73;;;;;;;;;;5030121;28;21192;-69
2021/03/12 03:18:01;;;;;;;13.40;2.43;;;;;;;;;;5040090;28;20236;-69
2021/03/12 03:20:28;;;;;;;9.47;1.33;;;;;;;;;;5039116;28;20213;-69
2021/03/12 03:22:54;;;;;;;8.63;1.67;;;;;;;;;;5033577;28;20526;-69
2021/03/12 03:25:19;;;;;;;9.03;1.60;;;;;;;;;;5040666;28;20193;-70
2021/03/12 03:27:45;;;;;;;11.80;1.80;;;;;;;;;;5034794;28;20193;-69
2021/03/12 03:30:13;;;;;;;9.13;1.60;;;;;;;;;;5037565;28;20382;-69
2021/03/12 03:32:38;;;;;;;13.23;2.13;;;;;;;;;;5035475;28;20201;-69
2021/03/12 03:35:06;;;;;;;11.80;1.57;;;;;;;;;;5037135;28;20198;-69
2021/03/12 03:37:31;;;;;;;8.07;1.70;;;;;;;;;;5027603;28;20458;-69
2021/03/12 03:39:56;;;;;;;9.90;1.70;;;;;;;;;;5039297;28;20297;-69
2021/03/12 03:42:25;;;;;;;11.80;1.83;;;;;;;;;;5032718;28;20221;-69
2021/03/12 03:44:52;;;;;;;7.80;1.80;;;;;;;;;;5037807;28;20653;-69
2021/03/12 03:47:18;;;;;;;10.47;1.50;;;;;;;;;;5030729;28;20625;-69
2021/03/12 03:49:44;;;;;;;10.57;1.53;;;;;;;;;;5041154;28;20951;-70
2021/03/12 03:52:11;;;;;;;13.97;2.17;;;;;;;;;;5029950;28;20672;-70
2021/03/12 03:54:38;;;;;;;9.53;1.13;;;;;;;;;;5035828;28;20657;-69
2021/03/12 03:57:05;;;;;;;8.30;1.67;;;;;;;;;;5037518;28;20269;-70
2021/03/12 03:59:31;;;;;;;10.97;2.13;;;;;;;;;;5035248;28;20309;-69
2021/03/12 04:01:57;;;;;;;8.00;1.50;;;;;;;;;;5036593;28;20238;-69
2021/03/12 04:04:23;;;;;;;10.27;2.77;;;;;;;;;;5029451;28;20258;-69
2021/03/12 04:06:49;;;;;;;9.57;1.70;;;;;;;;;;5041735;28;20228;-69
2021/03/12 04:09:16;;;;;;;9.00;1.87;;;;;;;;;;5034817;28;20644;-68
2021/03/12 04:11:43;;;;;;;9.63;1.50;;;;;;;;;;5032130;28;20186;-69
2021/03/12 04:14:09;;;;;;;13.43;1.63;;;;;;;;;;5024606;28;20572;-68
2021/03/12 04:16:36;;;;;;;9.13;1.90;;;;;;;;;;5033980;28;20333;-69
2021/03/12 04:19:03;;;;;;;13.37;2.30;;;;;;;;;;5026450;28;20217;-69
2021/03/12 04:21:29;;;;;;;18.63;2.93;;;;;;;;;;5033189;28;20545;-69
2021/03/12 04:23:55;;;;;;;13.00;2.60;;;;;;;;;;5024988;28;20323;-69
2021/03/12 04:26:21;;;;;;;14.40;3.10;;;;;;;;;;5028405;28;20187;-69
2021/03/12 04:28:47;;;;;;;16.17;2.90;;;;;;;;;;5035094;28;20193;-69
2021/03/12 04:31:13;;;;;;;10.77;2.37;;;;;;;;;;5021288;28;20186;-69
2021/03/12 04:33:39;;;;;;;11.67;2.60;;;;;;;;;;5035377;28;20182;-69
2021/03/12 04:36:05;;;;;;;9.83;2.40;;;;;;;;;;5025919;28;20189;-69
2021/03/12 04:38:32;;;;;;;9.37;2.03;;;;;;;;;;5032273;28;20225;-69
2021/03/12 04:40:58;;;;;;;15.37;2.33;;;;;;;;;;5025894;28;20263;-69
2021/03/12 04:43:24;;;;;;;11.20;2.40;;;;;;;;;;5036159;28;20704;-69
2021/03/12 04:45:50;;;;;;;13.67;2.97;;;;;;;;;;5024794;28;20185;-69
2021/03/12 04:48:16;;;;;;;12.53;2.50;;;;;;;;;;5038534;28;20259;-69
2021/03/12 04:50:42;;;;;;;16.67;2.87;;;;;;;;;;5024579;28;20216;-69
2021/03/12 04:53:08;;;;;;;11.83;2.73;;;;;;;;;;5031514;28;20194;-69
2021/03/12 04:55:33;;;;;;;11.80;2.63;;;;;;;;;;5026772;28;20197;-69
2021/03/12 04:58:00;;;;;;;15.57;2.93;;;;;;;;;;5032625;28;20610;-69
2021/03/12 05:00:25;;;;;;;15.60;2.70;;;;;;;;;;5033321;28;20201;-69
2021/03/12 05:02:51;;;;;;;13.47;3.10;;;;;;;;;;5023766;28;20186;-69
2021/03/12 05:05:19;;;;;;;13.63;3.43;;;;;;;;;;5036149;28;20282;-69
2021/03/12 05:07:45;;;;;;;17.60;3.37;;;;;;;;;;5033228;28;20189;-69
2021/03/12 05:10:11;;;;;;;17.77;3.37;;;;;;;;;;5036585;28;20186;-70
2021/03/12 05:12:37;;;;;;;15.77;3.20;;;;;;;;;;5027369;28;20181;-69
2021/03/12 05:15:03;;;;;;;15.93;3.60;;;;;;;;;;5039542;28;21013;-69
2021/03/12 05:17:28;;;;;;;15.90;3.57;;;;;;;;;;5026601;28;20184;-69
2021/03/12 05:19:53;;;;;;;8.97;3.13;;;;;;;;;;5036049;28;20213;-69
2021/03/12 05:22:19;;;;;;;18.67;3.47;;;;;;;;;;5029942;28;20196;-69
2021/03/12 05:24:44;;;;;;;18.43;3.53;;;;;;;;;;5038252;28;20212;-69
2021/03/12 05:27:10;;;;;;;25.23;3.97;;;;;;;;;;5029509;28;20189;-69
2021/03/12 05:29:35;;;;;;;13.47;3.80;;;;;;;;;;5040862;28;20316;-68
2021/03/12 05:32:01;;;;;;;13.57;3.80;;;;;;;;;;5037251;28;20174;-71
2021/03/12 05:34:27;;;;;;;15.60;3.50;;;;;;;;;;5026642;28;20700;-70
2021/03/12 05:36:53;;;;;;;16.60;4.17;;;;;;;;;;5033921;28;20201;-68
2021/03/12 05:39:21;;;;;;;16.67;3.10;;;;;;;;;;5024990;28;20229;-68
2021/03/12 05:41:47;;;;;;;19.40;4.10;;;;;;;;;;5035084;28;20278;-71
2021/03/12 05:44:13;;;;;;;13.50;3.80;;;;;;;;;;5024950;28;20192;-69
2021/03/12 05:46:39;;;;;;;18.60;3.77;;;;;;;;;;5034395;28;20701;-69
2021/03/12 05:49:05;;;;;;;16.27;4.30;;;;;;;;;;5024123;28;20224;-69
2021/03/12 05:51:34;;;;;;;14.70;3.83;;;;;;;;;;5036905;28;20638;-69
2021/03/12 05:54:01;;;;;;;15.97;3.83;;;;;;;;;;5029573;28;20189;-69
2021/03/12 05:56:27;;;;;;;15.90;3.60;;;;;;;;;;5042815;28;20246;-69
2021/03/12 05:58:52;;;;;;;15.13;3.40;;;;;;;;;;5025406;28;20209;-69
2021/03/12 06:01:18;;;;;;;14.23;3.20;;;;;;;;;;5038246;28;20708;-69
2021/03/12 06:03:44;;;;;;;12.27;3.17;;;;;;;;;;5040132;28;20201;-69
2021/03/12 06:06:10;;;;;;;15.37;3.83;;;;;;;;;;5030080;28;20181;-69
2021/03/12 06:08:35;;;;;;;10.10;3.53;;;;;;;;;;5036239;28;20190;-69
2021/03/12 06:11:02;;;;;;;11.57;3.33;;;;;;;;;;5028028;28;20189;-69
2021/03/12 06:13:28;;;;;;;14.73;3.73;;;;;;;;;;5039291;28;20182;-68
2021/03/12 06:15:54;;;;;;;19.17;3.63;;;;;;;;;;5028598;28;20190;-69
2021/03/12 06:18:22;;;;;;;19.13;3.90;;;;;;;;;;5034761;28;20214;-71
2021/03/12 06:20:48;;;;;;;16.00;3.70;;;;;;;;;;5024896;28;20190;-69
2021/03/12 06:23:35;;;;;;;23.03;3.40;;;;;;;;;;5035594;28;20194;-68
2021/03/12 06:26:01;;;;;;;17.03;3.70;;;;;;;;;;5027146;28;20197;-68
2021/03/12 06:28:26;;;;;;;11.00;3.10;;;;;;;;;;5036533;28;20178;-68
2021/03/12 06:30:52;;;;;;;19.30;3.43;;;;;;;;;;5028916;28;20209;-68
2021/03/12 06:33:34;;;;;;;11.53;3.27;;;;;;;;;;5043000;28;20344;-71
2021/03/12 06:36:02;;;;;;;16.57;3.60;;;;;;;;;;5026046;28;20657;-69
2021/03/12 06:38:28;;;;;;;13.23;2.73;;;;;;;;;;5041433;28;20222;-69
2021/03/12 06:40:53;;;;;;;10.90;2.53;;;;;;;;;;5036814;28;20197;-69
2021/03/12 06:43:25;;;;;;;17.07;3.37;;;;;;;;;;5029217;28;20642;-69
2021/03/12 06:45:51;;;;;;;10.53;2.80;;;;;;;;;;5039445;28;20178;-69
2021/03/12 06:48:32;;;;;;;15.43;3.50;;;;;;;;;;5027869;28;20182;-69
2021/03/12 06:51:06;;;;;;;13.40;3.00;;;;;;;;;;5037315;28;20201;-69
2021/03/12 06:53:32;;;;;;;17.93;3.37;;;;;;;;;;5032233;28;20193;-69
2021/03/12 06:56:00;;;;;;;14.67;3.33;;;;;;;;;;5034973;28;20692;-69
2021/03/12 06:58:26;;;;;;;13.40;3.10;;;;;;;;;;5024434;28;20189;-69
2021/03/12 07:00:52;;;;;;;16.50;3.07;;;;;;;;;;5032272;28;20185;-69
2021/03/12 07:03:23;;;;;;;9.63;2.97;;;;;;;;;;5030455;28;20560;-69
2021/03/12 07:06:16;;;;;;;14.37;2.77;;;;;;;;;;5032187;28;20177;-69
2021/03/12 07:08:47;;;;;;;10.73;2.20;;;;;;;;;;5028293;28;20186;-69
2021/03/12 07:11:27;;;;;;;12.90;3.10;;;;;;;;;;5032428;28;20182;-70
2021/03/12 07:13:54;;;;;;;17.67;2.77;;;;;;;;;;5029437;28;20192;-70
2021/03/12 07:16:21;;;;;;;15.17;3.00;;;;;;;;;;5036836;28;20665;-70
2021/03/12 07:18:47;;;;;;;12.77;2.57;;;;;;;;;;5029913;28;20198;-70
2021/03/12 07:21:15;;;;;;;14.33;2.70;;;;;;;;;;5039622;28;20188;-69
2021/03/12 07:23:47;;;;;;;16.53;2.60;;;;;;;;;;5030359;28;20198;-69
2021/03/12 07:26:14;;;;;;;13.97;2.43;;;;;;;;;;5039907;28;20206;-69
2021/03/12 07:28:41;;;;;;;14.07;2.70;;;;;;;;;;5026141;28;20189;-70
2021/03/12 07:31:12;;;;;;;19.20;2.80;;;;;;;;;;5038236;28;20184;-69
2021/03/12 07:33:41;;;;;;;12.77;2.60;;;;;;;;;;5032016;28;20190;-69
2021/03/12 07:36:09;;;;;;;14.33;2.80;;;;;;;;;;5031810;28;20184;-69
2021/03/12 07:38:35;;;;;;;17.63;2.20;;;;;;;;;;5039898;28;20225;-71
2021/03/12 07:41:05;;;;;;;15.63;2.77;;;;;;;;;;5033333;28;20235;-70
2021/03/12 07:43:37;;;;;;;15.80;2.80;;;;;;;;;;5036115;28;20216;-70
2021/03/12 07:46:05;;;;;;;13.63;3.27;;;;;;;;;;5028229;28;20251;-70
2021/03/12 07:48:31;;;;;;;14.43;2.97;;;;;;;;;;5034642;28;20239;-70
2021/03/12 07:51:11;;;;;;;14.83;2.67;;;;;;;;;;5027107;28;20181;-71
2021/03/12 07:53:49;;;;;;;17.33;2.97;;;;;;;;;;5033112;28;20218;-71
2021/03/12 07:56:16;;;;;;;8.60;2.10;;;;;;;;;;5031681;28;20189;-70
2021/03/12 07:58:52;;;;;;;11.97;2.10;;;;;;;;;;5035258;28;20289;-71
2021/03/12 08:01:21;;;;;;;17.30;2.83;;;;;;;;;;5024250;28;20254;-70
2021/03/12 08:03:49;;;;;;;15.47;2.70;;;;;;;;;;5036821;28;20206;-70
2021/03/12 08:06:18;;;;;;;15.30;2.63;;;;;;;;;;5029069;28;20186;-72
2021/03/12 08:08:45;;;;;;;12.27;2.50;;;;;;;;;;5033660;28;20220;-71
2021/03/12 08:11:29;;;;;;;15.53;3.47;;;;;;;;;;5031204;28;20279;-69
2021/03/12 08:14:11;;;;;;;13.73;2.90;;;;;;;;;;5039475;28;20189;-69
2021/03/12 08:16:57;;;;;;;12.70;2.43;;;;;;;;;;5028956;28;20544;-71
2021/03/12 08:19:32;;;;;;;15.37;2.87;;;;;;;;;;5031457;28;20284;-71
2021/03/12 08:21:58;;;;;;;11.13;2.47;;;;;;;;;;5028486;28;20189;-69
2021/03/12 08:24:45;;;;;;;14.23;2.87;;;;;;;;;;5039135;28;20209;-69
2021/03/12 08:27:11;;;;;;;16.83;2.73;;;;;;;;;;5023579;28;20440;-69
2021/03/12 08:29:42;;;;;;;16.73;2.93;;;;;;;;;;5035995;28;20671;-69
2021/03/12 08:32:36;;;;;;;12.97;3.03;;;;;;;;;;5028598;28;20264;-69
2021/03/12 08:35:03;;;;;;;13.73;2.40;;;;;;;;;;5034857;28;20360;-69
2021/03/12 08:37:29;;;;;;;15.70;2.63;;;;;;;;;;5025033;28;20189;-69
2021/03/12 08:40:16;;;;;;;15.93;3.13;;;;;;;;;;5035124;28;20684;-69
2021/03/12 08:42:54;;;;;;;21.40;3.27;;;;;;;;;;5029216;28;20225;-70
2021/03/12 08:45:37;;;;;;;16.43;2.73;;;;;;;;;;5037912;28;20178;-69
2021/03/12 08:48:04;;;;;;;16.00;2.80;;;;;;;;;;5027635;28;20192;-70
2021/03/12 08:50:30;;;;;;;17.73;2.90;;;;;;;;;;5043611;28;20197;-69
2021/03/12 08:52:56;;;;;;;15.20;2.67;;;;;;;;;;5024109;28;20255;-67
2021/03/12 08:55:21;;;;;;;15.97;2.90;;;;;;;;;;5025343;28;20194;-70
2021/03/12 08:57:46;;;;;;;16.07;3.23;;;;;;;;;;5038146;28;20216;-69
2021/03/12 09:00:14;;;;;;;18.27;3.43;;;;;;;;;;5029749;28;20295;-70
2021/03/12 09:02:39;;;;;;;14.15;2.92;;;;;;;;;;5038954;28;20343;-68
2021/03/12 09:05:27;;;;;;;13.67;2.83;;;;;;;;;;5027253;28;20288;-70
2021/03/12 09:07:56;;;;;;;20.97;3.40;;;;;;;;;;5034347;28;20187;-70
2021/03/12 09:10:26;;;;;;;19.50;2.95;;;;;;;;;;5025514;28;20185;-70
2021/03/12 09:12:52;;;;;;;17.35;2.92;;;;;;;;;;5035418;28;20229;-70
2021/03/12 09:15:23;;;;;;;19.27;3.25;;;;;;;;;;5026507;28;20221;-70
2021/03/12 09:17:49;;;;;;;12.63;2.50;;;;;;;;;;5036510;28;20293;-70
2021/03/12 09:20:15;;;;;;;17.42;2.85;;;;;;;;;;5032697;28;20362;-70
2021/03/12 09:22:49;;;;;;;19.97;3.10;;;;;;;;;;5036997;28;20197;-70
2021/03/12 09:25:26;;;;;;;17.92;2.97;;;;;;;;;;5024244;28;20189;-70
2021/03/12 09:28:10;;;;;;;15.10;3.07;;;;;;;;;;5040583;28;20198;-68
2021/03/12 09:30:38;;;;;;;24.38;3.75;;;;;;;;;;5024616;28;20329;-71
2021/03/12 09:33:06;;;;;;;18.90;3.53;;;;;;;;;;5042110;28;20206;-70
2021/03/12 09:35:40;;;;;;;16.33;2.78;;;;;;;;;;5027726;28;20193;-71
2021/03/12 09:38:06;;;;;;;19.73;2.87;;;;;;;;;;5034410;28;20973;-70
2021/03/12 09:40:41;;;;;;;19.52;3.50;;;;;;;;;;5029880;28;20221;-69
2021/03/12 09:43:08;;;;;;;19.00;3.03;;;;;;;;;;5035472;28;20204;-70
2021/03/12 09:45:36;;;;;;;20.13;3.30;;;;;;;;;;5029645;28;20177;-70
2021/03/12 09:48:05;;;;;;;23.63;3.42;;;;;;;;;;5037411;28;20648;-70
2021/03/12 09:50:37;;;;;;;15.18;2.90;;;;;;;;;;5042512;28;20174;-70
2021/03/12 09:53:06;;;;;;;19.92;3.17;;;;;;;;;;5034900;28;20193;-70
2021/03/12 09:55:36;;;;;;;20.60;2.83;;;;;;;;;;5040687;28;20182;-70
2021/03/12 09:58:09;;;;;;;18.63;3.17;;;;;;;;;;5033197;28;20290;-68
2021/03/12 10:00:34;;;;;;;17.58;3.13;;;;;;;;;;5040309;28;20193;-69
2021/03/12 10:03:01;;;;;;;20.33;3.20;;;;;;;;;;5031371;28;20212;-69
2021/03/12 10:05:27;;;;;;;20.42;2.92;;;;;;;;;;5035982;28;20649;-69
2021/03/12 10:07:53;;;;;;;21.02;3.10;;;;;;;;;;5031928;28;20215;-69
2021/03/12 10:10:24;;;;;;;22.17;3.38;;;;;;;;;;5041580;28;20633;-70
2021/03/12 10:12:53;;;;;;;30.70;4.20;;;;;;;;;;5030974;28;20581;-69
2021/03/12 10:15:25;;;;;;;20.02;3.25;;;;;;;;;;5038049;28;20214;-69
2021/03/12 10:17:51;;;;;;;24.38;3.40;;;;;;;;;;5030113;28;20198;-70
2021/03/12 10:20:18;;;;;;;17.27;3.33;;;;;;;;;;5041092;28;20542;-68
2021/03/12 10:22:46;;;;;;;22.67;3.65;;;;;;;;;;5027139;28;20207;-69
2021/03/12 10:25:24;;;;;;;16.50;3.33;;;;;;;;;;5035909;28;20182;-69
2021/03/12 10:27:58;;;;;;;21.70;3.78;;;;;;;;;;5031192;28;20276;-69
2021/03/12 10:30:26;;;;;;;16.67;3.28;;;;;;;;;;5041157;28;20177;-69
2021/03/12 10:32:56;;;;;;;17.05;3.47;;;;;;;;;;5032270;28;20195;-69
2021/03/12 10:35:34;;;;;;;17.77;3.30;;;;;;;;;;5037025;28;20182;-69
2021/03/12 10:38:12;;;;;;;16.40;3.08;;;;;;;;;;5037471;28;20256;-70
2021/03/12 10:40:39;;;;;;;18.58;3.22;;;;;;;;;;5042411;28;20221;-69
2021/03/12 10:43:15;;;;;;;21.67;4.13;;;;;;;;;;5037245;28;20518;-69
2021/03/12 10:46:06;;;;;;;18.45;3.70;;;;;;;;;;5027818;28;20513;-70
2021/03/12 10:48:45;;;;;;;16.67;3.95;;;;;;;;;;5031100;28;20902;-69
2021/03/12 10:51:12;;;;;;;17.48;2.97;;;;;;;;;;5036594;28;20197;-70
2021/03/12 10:53:48;;;;;;;20.00;3.35;;;;;;;;;;5038292;28;20193;-70
2021/03/12 10:56:15;;;;;;;21.25;3.40;;;;;;;;;;5030224;28;20193;-69
2021/03/12 10:58:41;;;;;;;22.05;3.45;;;;;;;;;;5035021;28;20170;-70
2021/03/12 11:01:22;;;;;;;19.13;3.03;;;;;;;;;;5025404;28;20185;-70
2021/03/12 11:03:48;;;;;;;18.77;3.67;;;;;;;;;;5035575;28;20762;-69
2021/03/12 11:06:16;;;;;;;13.75;2.92;;;;;;;;;;5025237;28;20186;-70
2021/03/12 11:08:42;;;;;;;15.30;3.15;;;;;;;;;;5035968;28;20208;-70
2021/03/12 11:11:10;;;;;;;15.75;3.00;;;;;;;;;;5023828;28;20190;-70
2021/03/12 11:13:36;;;;;;;19.08;3.75;;;;;;;;;;5036965;28;20587;-69
2021/03/12 11:16:02;;;;;;;15.05;2.63;;;;;;;;;;5021802;28;20189;-70
2021/03/12 11:18:30;;;;;;;18.17;3.72;;;;;;;;;;5041083;28;20193;-70
2021/03/12 11:20:57;;;;;;;14.07;2.42;;;;;;;;;;5027593;28;20200;-69
2021/03/12 11:23:22;;;;;;;15.18;2.85;;;;;;;;;;5036072;28;20182;-71
2021/03/12 11:25:47;;;;;;;9.77;2.40;;;;;;;;;;5027215;28;20677;-71
2021/03/12 11:28:13;;;;;;;14.60;2.88;;;;;;;;;;5034214;28;20333;-70
2021/03/12 11:30:38;;;;;;;14.13;2.60;;;;;;;;;;5033822;28;20185;-71
2021/03/12 11:33:04;;;;;;;15.47;3.57;;;;;;;;;;5028040;28;20194;-68
2021/03/12 11:35:30;;;;;;;19.37;3.07;;;;;;;;;;5032021;28;20201;-70
2021/03/12 11:37:56;;;;;;;15.50;3.40;;;;;;;;;;5034327;28;20316;-68
2021/03/12 11:40:21;;;;;;;16.70;2.90;;;;;;;;;;5042337;28;20213;-68
2021/03/12 11:42:46;;;;;;;17.07;3.27;;;;;;;;;;5028709;28;20642;-71
2021/03/12 11:45:15;;;;;;;16.95;2.90;;;;;;;;;;5032853;28;20181;-70
2021/03/12 11:47:41;;;;;;;16.45;2.40;;;;;;;;;;5030791;28;20229;-69
2021/03/12 11:50:19;;;;;;;14.03;2.67;;;;;;;;;;5038456;28;20525;-70
2021/03/12 11:52:47;;;;;;;15.10;2.90;;;;;;;;;;5027200;28;20186;-70
2021/03/12 11:55:12;;;;;;;16.65;3.33;;;;;;;;;;5040357;28;20193;-70
2021/03/12 11:57:38;;;;;;;18.02;2.78;;;;;;;;;;5028818;28;20189;-71
2021/03/12 12:00:09;;;;;;;15.75;2.72;;;;;;;;;;5043842;28;20872;-69
2021/03/12 12:02:34;;;;;;;15.15;3.03;;;;;;;;;;5028870;28;21534;-69
2021/03/12 12:05:02;;;;;;;14.27;2.70;;;;;;;;;;5042104;28;20212;-70
2021/03/12 12:07:27;;;;;;;21.67;3.50;;;;;;;;;;5038055;28;20189;-69
2021/03/12 12:09:53;;;;;;;17.05;3.10;;;;;;;;;;5031216;28;20646;-71
2021/03/12 12:12:19;;;;;;;12.82;2.60;;;;;;;;;;5036782;28;20233;-71
2021/03/12 12:14:46;;;;;;;11.27;1.95;;;;;;;;;;5031725;28;20197;-72
2021/03/12 12:17:12;;;;;;;10.55;2.30;;;;;;;;;;5032065;28;20193;-70
2021/03/12 12:19:40;;;;;;;9.93;2.58;;;;;;;;;;5025639;28;20246;-69
2021/03/12 12:22:06;;;;;;;12.65;3.10;;;;;;;;;;5033418;28;20186;-70
2021/03/12 12:24:31;;;;;;;11.35;2.72;;;;;;;;;;5018048;28;20665;-69
2021/03/12 12:26:56;;;;;;;11.90;2.28;;;;;;;;;;5033152;28;20190;-71
2021/03/12 12:29:22;;;;;;;18.57;2.73;;;;;;;;;;5025452;28;20189;-70
2021/03/12 12:31:47;;;;;;;17.50;2.90;;;;;;;;;;5035999;28;20190;-71
2021/03/12 12:34:12;;;;;;;18.50;2.93;;;;;;;;;;5021691;28;20174;-69
2021/03/12 12:36:38;;;;;;;8.93;2.72;;;;;;;;;;5034259;28;20200;-71
2021/03/12 12:39:06;;;;;;;16.65;3.17;;;;;;;;;;5038036;28;20234;-70
2021/03/12 12:41:33;;;;;;;16.30;3.15;;;;;;;;;;5028075;28;20198;-70
2021/03/12 12:43:58;;;;;;;14.93;3.47;;;;;;;;;;5031228;28;20212;-70
2021/03/12 12:46:24;;;;;;;15.57;3.15;;;;;;;;;;5023103;28;20204;-70
2021/03/12 12:48:49;;;;;;;17.63;2.97;;;;;;;;;;5030323;28;20660;-71
2021/03/12 12:51:15;;;;;;;17.55;3.45;;;;;;;;;;5017391;28;20321;-70
2021/03/12 12:53:41;;;;;;;17.80;4.18;;;;;;;;;;5035489;28;20671;-70
2021/03/12 12:56:07;;;;;;;21.60;3.97;;;;;;;;;;5023061;28;20213;-72
2021/03/12 12:58:33;;;;;;;19.30;4.30;;;;;;;;;;5031193;28;20188;-72
2021/03/12 13:00:58;;;;;;;19.73;4.53;;;;;;;;;;5024142;28;20197;-73
2021/03/12 13:03:23;;;;;;;24.20;5.53;;;;;;;;;;5033844;28;20235;-70
2021/03/12 13:05:50;;;;;;;22.63;4.43;;;;;;;;;;5021534;28;20197;-74
2021/03/12 13:08:16;;;;;;;24.43;4.67;;;;;;;;;;5031425;28;20272;-72
2021/03/12 13:10:42;;;;;;;21.65;4.35;;;;;;;;;;5032885;28;20216;-71
2021/03/12 13:13:07;;;;;;;20.53;4.40;;;;;;;;;;5018238;28;20272;-71
2021/03/12 13:15:33;;;;;;;18.13;4.00;;;;;;;;;;5036682;28;20218;-73
2021/03/12 13:17:59;;;;;;;14.07;3.30;;;;;;;;;;5030181;28;20181;-70
2021/03/12 13:20:26;;;;;;;18.93;3.90;;;;;;;;;;5034851;28;20209;-69
2021/03/12 13:22:52;;;;;;;21.05;3.85;;;;;;;;;;5025137;28;20193;-70
2021/03/12 13:25:19;;;;;;;11.55;3.53;;;;;;;;;;5031866;28;20251;-71
2021/03/12 13:27:46;;;;;;;13.93;3.55;;;;;;;;;;5024899;28;20244;-70
2021/03/12 13:30:15;;;;;;;16.27;3.40;;;;;;;;;;5028413;28;20189;-71
2021/03/12 13:32:41;;;;;;;21.10;3.50;;;;;;;;;;5017984;28;20181;-69
2021/03/12 13:35:08;;;;;;;15.90;3.53;;;;;;;;;;5031873;28;20237;-70
2021/03/12 13:37:34;;;;;;;24.47;4.20;;;;;;;;;;5026098;28;20189;-69
2021/03/12 13:40:02;;;;;;;16.67;3.63;;;;;;;;;;5030829;28;20217;-69
2021/03/12 13:42:29;;;;;;;14.93;3.00;;;;;;;;;;5027965;28;20552;-70
2021/03/12 13:44:54;;;;;;;17.73;3.00;;;;;;;;;;5035250;28;20189;-71
2021/03/12 13:47:20;;;;;;;16.37;2.60;;;;;;;;;;5036329;28;20600;-69
2021/03/12 13:49:45;;;;;;;16.63;2.40;;;;;;;;;;5025611;28;20200;-71
2021/03/12 13:52:11;;;;;;;16.47;2.60;;;;;;;;;;5029026;28;20186;-70
2021/03/12 13:54:36;;;;;;;10.27;2.33;;;;;;;;;;5022683;28;20247;-70
2021/03/12 13:57:02;;;;;;;11.63;2.23;;;;;;;;;;5034083;28;20186;-70
2021/03/12 13:59:27;;;;;;;12.50;2.33;;;;;;;;;;5020193;28;20214;-69
2021/03/12 14:01:53;;;;;;;15.47;2.83;;;;;;;;;;5028687;28;20177;-70
2021/03/12 14:04:18;;;;;;;16.60;2.70;;;;;;;;;;5024568;28;20205;-69
2021/03/12 14:06:43;;;;;;;15.07;2.43;;;;;;;;;;5032244;28;20190;-70
2021/03/12 14:09:13;;;;;;;15.45;2.30;;;;;;;;;;5024945;28;20178;-71
2021/03/12 14:11:44;;;;;;;15.27;2.40;;;;;;;;;;5035495;28;20252;-69
2021/03/12 14:14:10;;;;;;;17.70;2.37;;;;;;;;;;5028454;28;20265;-71
2021/03/12 14:16:35;;;;;;;13.43;3.00;;;;;;;;;;5034429;28;20190;-71
2021/03/12 14:19:02;;;;;;;15.30;2.40;;;;;;;;;;5036923;28;20201;-70
2021/03/12 14:21:28;;;;;;;14.73;2.60;;;;;;;;;;5027226;28;20190;-68
2021/03/12 14:23:53;;;;;;;12.23;2.20;;;;;;;;;;5038338;28;20219;-68
2021/03/12 14:26:19;;;;;;;11.57;2.47;;;;;;;;;;5025263;28;20194;-70
2021/03/12 14:28:45;;;;;;;11.33;2.70;;;;;;;;;;5038382;28;20182;-69
2021/03/12 14:31:10;;;;;;;8.97;2.20;;;;;;;;;;5034625;28;20235;-69
2021/03/12 14:33:35;;;;;;;15.03;2.50;;;;;;;;;;5036045;28;20178;-70
2021/03/12 14:36:01;;;;;;;9.20;2.40;;;;;;;;;;5030733;28;20276;-71
2021/03/12 14:38:26;;;;;;;14.33;2.57;;;;;;;;;;5036742;28;20217;-70